sensor_id;sensor_type;location;lat;lon;timestamp;pressure;altitude;pressure_sealevel;temperature;humidity
84190;BME280;74321;53.406;8.146;2024-03-29T00:04:21;99293.41;;;6.50;100.00
84190;BME280;74321;53.406;8.146;2024-03-29T00:09:22;99293.38;;;6.55;100.00
84190;BME280;74321;53.406;8.146;2024-03-29T00:14:23;99288.19;;;6.61;100.00
84190;BME280;74321;53.406;8.146;2024-03-29T00:19:23;99297.56;;;6.59;100.00
84190;BME280;74321;53.406;8.146;2024-03-29T00:24:24;99302.59;;;6.62;100.00
84190;BME280;74321;53.406;8.146;2024-03-29T00:29:25;99288.41;;;6.44;100.00
84190;BME280;74321;53.406;8.146;2024-03-29T00:34:27;99287.72;;;6.31;100.00
84190;BME280;74321;53.406;8.146;2024-03-29T00:39:28;99306.94;;;6.55;100.00
84190;BME280;74321;53.406;8.146;2024-03-29T00:44:29;99297.81;;;6.36;100.00
84190;BME280;74321;53.406;8.146;2024-03-29T00:49:30;99298.53;;;6.48;100.00
84190;BME280;74321;53.406;8.146;2024-03-29T00:54:31;99305.47;;;6.34;100.00
84190;BME280;74321;53.406;8.146;2024-03-29T00:59:32;99289.50;;;6.20;100.00
84190;BME280;74321;53.406;8.146;2024-03-29T01:04:33;99301.91;;;6.49;100.00
84190;BME280;74321;53.406;8.146;2024-03-29T01:09:34;99309.75;;;6.32;100.00
84190;BME280;74321;53.406;8.146;2024-03-29T01:14:34;99303.00;;;6.28;100.00
84190;BME280;74321;53.406;8.146;2024-03-29T01:19:35;99305.53;;;6.30;100.00
84190;BME280;74321;53.406;8.146;2024-03-29T01:24:36;99292.97;;;6.14;100.00
84190;BME280;74321;53.406;8.146;2024-03-29T01:29:37;99304.94;;;6.03;100.00
84190;BME280;74321;53.406;8.146;2024-03-29T01:34:38;99324.81;;;6.49;100.00
84190;BME280;74321;53.406;8.146;2024-03-29T01:39:39;99337.00;;;6.21;100.00
84190;BME280;74321;53.406;8.146;2024-03-29T01:44:40;99327.66;;;6.22;100.00
84190;BME280;74321;53.406;8.146;2024-03-29T01:49:41;99312.50;;;6.11;100.00
84190;BME280;74321;53.406;8.146;2024-03-29T01:54:42;99323.59;;;6.05;100.00
84190;BME280;74321;53.406;8.146;2024-03-29T01:59:45;99308.34;;;6.02;100.00
84190;BME280;74321;53.406;8.146;2024-03-29T02:04:47;99321.13;;;5.95;100.00
84190;BME280;74321;53.406;8.146;2024-03-29T02:09:48;99321.81;;;6.12;100.00
84190;BME280;74321;53.406;8.146;2024-03-29T02:14:49;99336.31;;;6.05;100.00
84190;BME280;74321;53.406;8.146;2024-03-29T02:19:49;99328.53;;;6.17;100.00
84190;BME280;74321;53.406;8.146;2024-03-29T02:24:54;99342.81;;;6.32;100.00
84190;BME280;74321;53.406;8.146;2024-03-29T02:29:56;99328.41;;;6.31;100.00
84190;BME280;74321;53.406;8.146;2024-03-29T02:34:56;99335.06;;;6.43;100.00
84190;BME280;74321;53.406;8.146;2024-03-29T02:39:57;99317.28;;;6.40;100.00
84190;BME280;74321;53.406;8.146;2024-03-29T02:44:58;99309.72;;;6.34;100.00
84190;BME280;74321;53.406;8.146;2024-03-29T02:49:59;99304.69;;;6.31;100.00
84190;BME280;74321;53.406;8.146;2024-03-29T02:55:00;99288.69;;;6.21;100.00
84190;BME280;74321;53.406;8.146;2024-03-29T03:00:01;99298.81;;;6.24;100.00
84190;BME280;74321;53.406;8.146;2024-03-29T03:05:01;99303.09;;;6.19;100.00
84190;BME280;74321;53.406;8.146;2024-03-29T03:10:02;99309.00;;;6.23;100.00
84190;BME280;74321;53.406;8.146;2024-03-29T03:15:22;99298.84;;;6.19;100.00
84190;BME280;74321;53.406;8.146;2024-03-29T03:20:22;99302.13;;;6.32;100.00
84190;BME280;74321;53.406;8.146;2024-03-29T03:25:27;99313.16;;;6.31;100.00
84190;BME280;74321;53.406;8.146;2024-03-29T03:30:28;99296.19;;;6.29;100.00
84190;BME280;74321;53.406;8.146;2024-03-29T03:35:29;99315.78;;;6.20;100.00
84190;BME280;74321;53.406;8.146;2024-03-29T03:40:30;99315.84;;;6.16;100.00
84190;BME280;74321;53.406;8.146;2024-03-29T03:45:38;99316.56;;;6.27;100.00
84190;BME280;74321;53.406;8.146;2024-03-29T03:50:39;99303.28;;;6.01;100.00
84190;BME280;74321;53.406;8.146;2024-03-29T03:55:41;99311.56;;;6.19;100.00
84190;BME280;74321;53.406;8.146;2024-03-29T04:00:43;99314.84;;;6.32;100.00
84190;BME280;74321;53.406;8.146;2024-03-29T04:05:43;99285.31;;;6.17;100.00
84190;BME280;74321;53.406;8.146;2024-03-29T04:10:44;99293.00;;;6.13;100.00
84190;BME280;74321;53.406;8.146;2024-03-29T04:15:45;99290.34;;;6.20;100.00
84190;BME280;74321;53.406;8.146;2024-03-29T04:20:46;99321.56;;;6.38;100.00
84190;BME280;74321;53.406;8.146;2024-03-29T04:25:54;99307.25;;;6.29;100.00
84190;BME280;74321;53.406;8.146;2024-03-29T04:30:56;99331.56;;;6.52;100.00
84190;BME280;74321;53.406;8.146;2024-03-29T04:36:02;99317.31;;;6.38;100.00
84190;BME280;74321;53.406;8.146;2024-03-29T04:41:03;99318.06;;;6.45;100.00
84190;BME280;74321;53.406;8.146;2024-03-29T04:46:09;99324.03;;;6.45;100.00
84190;BME280;74321;53.406;8.146;2024-03-29T04:51:10;99317.28;;;6.41;100.00
84190;BME280;74321;53.406;8.146;2024-03-29T04:56:11;99346.84;;;6.52;100.00
84190;BME280;74321;53.406;8.146;2024-03-29T05:01:12;99334.88;;;6.60;100.00
84190;BME280;74321;53.406;8.146;2024-03-29T05:06:13;99343.16;;;6.77;100.00
84190;BME280;74321;53.406;8.146;2024-03-29T05:11:14;99355.97;;;6.71;100.00
84190;BME280;74321;53.406;8.146;2024-03-29T05:16:15;99348.41;;;6.65;100.00
84190;BME280;74321;53.406;8.146;2024-03-29T05:21:17;99342.63;;;6.49;100.00
84190;BME280;74321;53.406;8.146;2024-03-29T05:26:18;99348.28;;;6.74;100.00
84190;BME280;74321;53.406;8.146;2024-03-29T05:31:18;99338.06;;;6.77;100.00
84190;BME280;74321;53.406;8.146;2024-03-29T05:36:19;99356.81;;;6.68;100.00
84190;BME280;74321;53.406;8.146;2024-03-29T05:41:20;99375.25;;;6.90;100.00
84190;BME280;74321;53.406;8.146;2024-03-29T05:46:21;99349.16;;;6.71;100.00
84190;BME280;74321;53.406;8.146;2024-03-29T05:51:22;99377.81;;;6.89;100.00
84190;BME280;74321;53.406;8.146;2024-03-29T05:56:23;99378.50;;;7.01;100.00
84190;BME280;74321;53.406;8.146;2024-03-29T06:01:23;99383.47;;;7.11;100.00
84190;BME280;74321;53.406;8.146;2024-03-29T06:06:24;99397.75;;;7.24;100.00
84190;BME280;74321;53.406;8.146;2024-03-29T06:11:25;99383.88;;;7.43;100.00
84190;BME280;74321;53.406;8.146;2024-03-29T06:16:27;99398.13;;;7.58;100.00
84190;BME280;74321;53.406;8.146;2024-03-29T06:21:47;99380.00;;;7.76;100.00
84190;BME280;74321;53.406;8.146;2024-03-29T06:26:48;99387.50;;;7.87;100.00
84190;BME280;74321;53.406;8.146;2024-03-29T06:31:49;99394.09;;;7.99;100.00
84190;BME280;74321;53.406;8.146;2024-03-29T06:36:50;99402.41;;;8.10;100.00
84190;BME280;74321;53.406;8.146;2024-03-29T06:41:51;99389.78;;;8.04;100.00
84190;BME280;74321;53.406;8.146;2024-03-29T06:46:52;99410.78;;;8.20;100.00
84190;BME280;74321;53.406;8.146;2024-03-29T06:51:53;99414.84;;;8.30;100.00
84190;BME280;74321;53.406;8.146;2024-03-29T06:56:56;99379.34;;;8.16;100.00
84190;BME280;74321;53.406;8.146;2024-03-29T07:01:57;99416.66;;;8.23;100.00
84190;BME280;74321;53.406;8.146;2024-03-29T07:06:59;99418.31;;;8.26;100.00
84190;BME280;74321;53.406;8.146;2024-03-29T07:11:59;99441.25;;;8.29;100.00
84190;BME280;74321;53.406;8.146;2024-03-29T07:17:00;99465.94;;;8.25;100.00
84190;BME280;74321;53.406;8.146;2024-03-29T07:22:01;99471.16;;;8.17;100.00
84190;BME280;74321;53.406;8.146;2024-03-29T07:27:02;99464.41;;;8.15;100.00
84190;BME280;74321;53.406;8.146;2024-03-29T07:32:03;99492.63;;;8.06;100.00
84190;BME280;74321;53.406;8.146;2024-03-29T07:37:04;99493.69;;;7.91;100.00
84190;BME280;74321;53.406;8.146;2024-03-29T07:42:05;99489.63;;;7.78;100.00
84190;BME280;74321;53.406;8.146;2024-03-29T07:47:06;99499.53;;;7.98;100.00
84190;BME280;74321;53.406;8.146;2024-03-29T07:52:07;99497.88;;;7.94;100.00
84190;BME280;74321;53.406;8.146;2024-03-29T07:57:09;99500.78;;;7.69;100.00
84190;BME280;74321;53.406;8.146;2024-03-29T08:02:11;99513.47;;;7.74;100.00
84190;BME280;74321;53.406;8.146;2024-03-29T08:07:12;99504.78;;;7.88;100.00
84190;BME280;74321;53.406;8.146;2024-03-29T08:12:13;99510.91;;;7.75;100.00
84190;BME280;74321;53.406;8.146;2024-03-29T08:17:14;99501.72;;;7.64;100.00
84190;BME280;74321;53.406;8.146;2024-03-29T08:22:15;99489.66;;;7.75;100.00
84190;BME280;74321;53.406;8.146;2024-03-29T08:27:16;99511.38;;;8.03;100.00
84190;BME280;74321;53.406;8.146;2024-03-29T08:32:17;99515.91;;;7.83;100.00
84190;BME280;74321;53.406;8.146;2024-03-29T08:37:18;99508.72;;;8.11;100.00
84190;BME280;74321;53.406;8.146;2024-03-29T08:42:19;99520.28;;;7.73;100.00
84190;BME280;74321;53.406;8.146;2024-03-29T08:47:20;99514.19;;;7.83;100.00
84190;BME280;74321;53.406;8.146;2024-03-29T08:52:21;99503.59;;;8.12;100.00
84190;BME280;74321;53.406;8.146;2024-03-29T08:57:22;99511.13;;;8.20;100.00
84190;BME280;74321;53.406;8.146;2024-03-29T09:02:23;99512.69;;;8.29;100.00
84190;BME280;74321;53.406;8.146;2024-03-29T09:07:24;99495.03;;;8.15;100.00
84190;BME280;74321;53.406;8.146;2024-03-29T09:12:25;99504.34;;;8.17;100.00
84190;BME280;74321;53.406;8.146;2024-03-29T09:17:26;99489.75;;;8.26;100.00
84190;BME280;74321;53.406;8.146;2024-03-29T09:22:27;99503.16;;;8.41;100.00
84190;BME280;74321;53.406;8.146;2024-03-29T09:27:28;99502.78;;;8.09;100.00
84190;BME280;74321;53.406;8.146;2024-03-29T09:32:29;99517.94;;;8.20;100.00
84190;BME280;74321;53.406;8.146;2024-03-29T09:37:30;99495.13;;;8.09;100.00
84190;BME280;74321;53.406;8.146;2024-03-29T09:42:32;99508.47;;;8.28;100.00
84190;BME280;74321;53.406;8.146;2024-03-29T09:47:33;99513.47;;;8.32;100.00
84190;BME280;74321;53.406;8.146;2024-03-29T09:52:35;99523.25;;;8.63;100.00
84190;BME280;74321;53.406;8.146;2024-03-29T09:57:37;99517.66;;;9.34;100.00
84190;BME280;74321;53.406;8.146;2024-03-29T10:02:39;99488.91;;;10.04;100.00
84190;BME280;74321;53.406;8.146;2024-03-29T10:07:41;99492.06;;;10.84;100.00
84190;BME280;74321;53.406;8.146;2024-03-29T10:12:43;99489.38;;;10.56;100.00
84190;BME280;74321;53.406;8.146;2024-03-29T10:17:47;99513.97;;;9.89;100.00
84190;BME280;74321;53.406;8.146;2024-03-29T10:22:51;99515.38;;;9.63;100.00
84190;BME280;74321;53.406;8.146;2024-03-29T10:27:53;99487.44;;;10.65;100.00
84190;BME280;74321;53.406;8.146;2024-03-29T10:32:57;99503.34;;;10.44;100.00
84190;BME280;74321;53.406;8.146;2024-03-29T10:37:58;99491.13;;;10.88;100.00
84190;BME280;74321;53.406;8.146;2024-03-29T10:42:59;99486.25;;;10.07;100.00
84190;BME280;74321;53.406;8.146;2024-03-29T10:48:05;99475.38;;;9.98;100.00
84190;BME280;74321;53.406;8.146;2024-03-29T10:53:09;99493.25;;;10.38;100.00
84190;BME280;74321;53.406;8.146;2024-03-29T10:58:14;99495.31;;;10.90;100.00
84190;BME280;74321;53.406;8.146;2024-03-29T11:03:39;99487.63;;;10.90;100.00
84190;BME280;74321;53.406;8.146;2024-03-29T11:08:43;99477.03;;;10.72;100.00
84190;BME280;74321;53.406;8.146;2024-03-29T11:14:06;99488.06;;;10.74;100.00
84190;BME280;74321;53.406;8.146;2024-03-29T11:19:08;99455.66;;;11.35;100.00
84190;BME280;74321;53.406;8.146;2024-03-29T11:24:10;99446.94;;;14.76;100.00
84190;BME280;74321;53.406;8.146;2024-03-29T11:29:21;99468.03;;;13.79;100.00
84190;BME280;74321;53.406;8.146;2024-03-29T11:34:23;99474.44;;;13.22;100.00
84190;BME280;74321;53.406;8.146;2024-03-29T11:39:23;99486.28;;;13.95;100.00
84190;BME280;74321;53.406;8.146;2024-03-29T11:44:25;99470.72;;;14.62;100.00
84190;BME280;74321;53.406;8.146;2024-03-29T11:49:25;99488.50;;;14.68;100.00
84190;BME280;74321;53.406;8.146;2024-03-29T11:54:26;99486.53;;;12.95;100.00
84190;BME280;74321;53.406;8.146;2024-03-29T11:59:27;99487.94;;;12.54;100.00
84190;BME280;74321;53.406;8.146;2024-03-29T12:04:28;99491.22;;;14.85;100.00
84190;BME280;74321;53.406;8.146;2024-03-29T12:09:29;99510.84;;;16.23;100.00
84190;BME280;74321;53.406;8.146;2024-03-29T12:14:31;99510.25;;;15.61;100.00
84190;BME280;74321;53.406;8.146;2024-03-29T12:19:36;99521.94;;;14.27;100.00
84190;BME280;74321;53.406;8.146;2024-03-29T12:24:39;99497.91;;;14.05;100.00
84190;BME280;74321;53.406;8.146;2024-03-29T12:29:40;99489.06;;;15.73;100.00
84190;BME280;74321;53.406;8.146;2024-03-29T12:34:41;99512.50;;;14.70;100.00
84190;BME280;74321;53.406;8.146;2024-03-29T12:39:42;99518.47;;;14.71;100.00
84190;BME280;74321;53.406;8.146;2024-03-29T12:44:43;99528.59;;;14.55;100.00
84190;BME280;74321;53.406;8.146;2024-03-29T12:49:43;99524.94;;;13.49;100.00
84190;BME280;74321;53.406;8.146;2024-03-29T12:54:44;99510.47;;;13.45;100.00
84190;BME280;74321;53.406;8.146;2024-03-29T12:59:45;99529.78;;;14.02;100.00
84190;BME280;74321;53.406;8.146;2024-03-29T13:04:47;99543.38;;;13.61;100.00
84190;BME280;74321;53.406;8.146;2024-03-29T13:09:48;99528.94;;;13.33;100.00
84190;BME280;74321;53.406;8.146;2024-03-29T13:14:48;99534.66;;;13.41;100.00
84190;BME280;74321;53.406;8.146;2024-03-29T13:19:49;99553.81;;;13.08;100.00
84190;BME280;74321;53.406;8.146;2024-03-29T13:24:50;99543.22;;;13.15;100.00
84190;BME280;74321;53.406;8.146;2024-03-29T13:29:52;99568.81;;;12.95;100.00
84190;BME280;74321;53.406;8.146;2024-03-29T13:34:53;99555.31;;;12.88;100.00
84190;BME280;74321;53.406;8.146;2024-03-29T13:39:55;99555.94;;;12.95;100.00
84190;BME280;74321;53.406;8.146;2024-03-29T13:44:56;99567.16;;;13.67;100.00
84190;BME280;74321;53.406;8.146;2024-03-29T13:49:56;99545.53;;;13.25;100.00
84190;BME280;74321;53.406;8.146;2024-03-29T13:54:58;99575.09;;;13.61;100.00
84190;BME280;74321;53.406;8.146;2024-03-29T13:59:59;99560.00;;;13.02;100.00
84190;BME280;74321;53.406;8.146;2024-03-29T14:05:00;99565.03;;;13.05;100.00
84190;BME280;74321;53.406;8.146;2024-03-29T14:10:01;99569.13;;;13.11;100.00
84190;BME280;74321;53.406;8.146;2024-03-29T14:15:05;99572.78;;;12.52;100.00
84190;BME280;74321;53.406;8.146;2024-03-29T14:20:07;99585.44;;;12.30;100.00
84190;BME280;74321;53.406;8.146;2024-03-29T14:25:08;99576.63;;;12.11;100.00
84190;BME280;74321;53.406;8.146;2024-03-29T14:30:11;99580.47;;;12.26;100.00
84190;BME280;74321;53.406;8.146;2024-03-29T14:35:12;99561.22;;;11.81;100.00
84190;BME280;74321;53.406;8.146;2024-03-29T14:40:13;99591.03;;;12.15;100.00
84190;BME280;74321;53.406;8.146;2024-03-29T14:45:15;99570.19;;;12.79;100.00
84190;BME280;74321;53.406;8.146;2024-03-29T14:50:16;99563.38;;;13.29;100.00
84190;BME280;74321;53.406;8.146;2024-03-29T14:55:19;99596.50;;;13.38;100.00
84190;BME280;74321;53.406;8.146;2024-03-29T15:00:20;99608.94;;;13.51;100.00
84190;BME280;74321;53.406;8.146;2024-03-29T15:05:23;99578.06;;;13.01;100.00
84190;BME280;74321;53.406;8.146;2024-03-29T15:10:26;99598.59;;;12.48;100.00
84190;BME280;74321;53.406;8.146;2024-03-29T15:15:27;99619.25;;;12.99;100.00
84190;BME280;74321;53.406;8.146;2024-03-29T15:20:28;99623.63;;;12.96;100.00
84190;BME280;74321;53.406;8.146;2024-03-29T15:25:29;99617.06;;;12.87;100.00
84190;BME280;74321;53.406;8.146;2024-03-29T15:30:29;99638.19;;;12.70;100.00
84190;BME280;74321;53.406;8.146;2024-03-29T15:35:30;99645.06;;;13.23;100.00
84190;BME280;74321;53.406;8.146;2024-03-29T15:40:31;99591.50;;;12.82;100.00
84190;BME280;74321;53.406;8.146;2024-03-29T15:45:32;99625.88;;;12.80;100.00
84190;BME280;74321;53.406;8.146;2024-03-29T15:50:33;99616.06;;;12.64;100.00
84190;BME280;74321;53.406;8.146;2024-03-29T15:55:34;99623.41;;;12.77;100.00
84190;BME280;74321;53.406;8.146;2024-03-29T16:00:35;99635.84;;;12.62;100.00
84190;BME280;74321;53.406;8.146;2024-03-29T16:05:45;99649.31;;;12.43;100.00
84190;BME280;74321;53.406;8.146;2024-03-29T16:10:56;99635.00;;;12.34;100.00
84190;BME280;74321;53.406;8.146;2024-03-29T16:16:04;99636.66;;;12.07;100.00
84190;BME280;74321;53.406;8.146;2024-03-29T16:21:05;99636.28;;;11.90;100.00
84190;BME280;74321;53.406;8.146;2024-03-29T16:26:06;99649.91;;;11.61;100.00
84190;BME280;74321;53.406;8.146;2024-03-29T16:31:07;99653.75;;;11.44;100.00
84190;BME280;74321;53.406;8.146;2024-03-29T16:36:08;99624.72;;;11.08;100.00
84190;BME280;74321;53.406;8.146;2024-03-29T16:41:09;99669.16;;;11.09;100.00
84190;BME280;74321;53.406;8.146;2024-03-29T16:46:09;99658.28;;;11.01;100.00
84190;BME280;74321;53.406;8.146;2024-03-29T16:51:10;99682.19;;;11.00;100.00
84190;BME280;74321;53.406;8.146;2024-03-29T16:56:13;99678.13;;;10.92;100.00
84190;BME280;74321;53.406;8.146;2024-03-29T17:01:14;99680.19;;;10.77;100.00
84190;BME280;74321;53.406;8.146;2024-03-29T17:06:14;99685.78;;;10.55;100.00
84190;BME280;74321;53.406;8.146;2024-03-29T17:11:15;99674.81;;;10.49;100.00
84190;BME280;74321;53.406;8.146;2024-03-29T17:16:16;99678.09;;;10.55;100.00
84190;BME280;74321;53.406;8.146;2024-03-29T17:21:17;99677.34;;;10.50;100.00
84190;BME280;74321;53.406;8.146;2024-03-29T17:26:18;99711.31;;;10.60;100.00
84190;BME280;74321;53.406;8.146;2024-03-29T17:31:18;99739.84;;;10.43;100.00
84190;BME280;74321;53.406;8.146;2024-03-29T17:36:19;99726.44;;;9.84;100.00
84190;BME280;74321;53.406;8.146;2024-03-29T17:41:20;99731.41;;;9.42;100.00
84190;BME280;74321;53.406;8.146;2024-03-29T17:46:22;99749.75;;;9.16;100.00
84190;BME280;74321;53.406;8.146;2024-03-29T17:51:23;99758.47;;;9.01;100.00
84190;BME280;74321;53.406;8.146;2024-03-29T17:56:24;99742.78;;;8.66;100.00
84190;BME280;74321;53.406;8.146;2024-03-29T18:01:25;99732.66;;;8.60;100.00
84190;BME280;74321;53.406;8.146;2024-03-29T18:06:26;99758.19;;;8.61;100.00
84190;BME280;74321;53.406;8.146;2024-03-29T18:11:27;99743.28;;;8.23;100.00
84190;BME280;74321;53.406;8.146;2024-03-29T18:16:28;99755.34;;;8.12;100.00
84190;BME280;74321;53.406;8.146;2024-03-29T18:21:29;99753.16;;;7.75;100.00
84190;BME280;74321;53.406;8.146;2024-03-29T18:26:29;99781.38;;;7.57;100.00
84190;BME280;74321;53.406;8.146;2024-03-29T18:31:30;99768.78;;;7.37;100.00
84190;BME280;74321;53.406;8.146;2024-03-29T18:36:31;99776.66;;;7.02;100.00
84190;BME280;74321;53.406;8.146;2024-03-29T18:41:34;99801.38;;;6.85;100.00
84190;BME280;74321;53.406;8.146;2024-03-29T18:46:35;99801.47;;;6.60;100.00
84190;BME280;74321;53.406;8.146;2024-03-29T18:51:36;99793.47;;;7.30;100.00
84190;BME280;74321;53.406;8.146;2024-03-29T18:56:37;99792.84;;;6.96;100.00
84190;BME280;74321;53.406;8.146;2024-03-29T19:01:38;99802.25;;;6.78;100.00
84190;BME280;74321;53.406;8.146;2024-03-29T19:06:39;99809.13;;;6.59;100.00
84190;BME280;74321;53.406;8.146;2024-03-29T19:11:40;99798.97;;;6.50;100.00
84190;BME280;74321;53.406;8.146;2024-03-29T19:16:41;99801.47;;;6.62;100.00
84190;BME280;74321;53.406;8.146;2024-03-29T19:21:41;99816.75;;;6.62;100.00
84190;BME280;74321;53.406;8.146;2024-03-29T19:26:46;99802.34;;;6.53;100.00
84190;BME280;74321;53.406;8.146;2024-03-29T19:31:47;99800.63;;;6.61;100.00
84190;BME280;74321;53.406;8.146;2024-03-29T19:36:48;99808.13;;;6.93;100.00
84190;BME280;74321;53.406;8.146;2024-03-29T19:41:53;99814.09;;;6.89;100.00
84190;BME280;74321;53.406;8.146;2024-03-29T19:46:53;99814.94;;;6.91;100.00
84190;BME280;74321;53.406;8.146;2024-03-29T19:51:54;99800.72;;;7.76;100.00
84190;BME280;74321;53.406;8.146;2024-03-29T19:56:55;99822.56;;;8.11;100.00
84190;BME280;74321;53.406;8.146;2024-03-29T20:01:56;99840.94;;;7.45;100.00
84190;BME280;74321;53.406;8.146;2024-03-29T20:06:57;99834.19;;;7.38;100.00
84190;BME280;74321;53.406;8.146;2024-03-29T20:11:58;99833.66;;;8.04;100.00
84190;BME280;74321;53.406;8.146;2024-03-29T20:16:58;99840.72;;;7.73;100.00
84190;BME280;74321;53.406;8.146;2024-03-29T20:21:59;99848.22;;;7.91;100.00
84190;BME280;74321;53.406;8.146;2024-03-29T20:27:00;99863.50;;;7.97;100.00
84190;BME280;74321;53.406;8.146;2024-03-29T20:32:01;99866.84;;;8.01;100.00
84190;BME280;74321;53.406;8.146;2024-03-29T20:37:08;99864.50;;;7.79;100.00
84190;BME280;74321;53.406;8.146;2024-03-29T20:42:10;99854.34;;;7.69;100.00
84190;BME280;74321;53.406;8.146;2024-03-29T20:47:11;99858.63;;;7.65;100.00
84190;BME280;74321;53.406;8.146;2024-03-29T20:52:12;99858.38;;;7.99;100.00
84190;BME280;74321;53.406;8.146;2024-03-29T20:57:13;99852.25;;;8.15;100.00
84190;BME280;74321;53.406;8.146;2024-03-29T21:02:14;99851.50;;;8.02;100.00
84190;BME280;74321;53.406;8.146;2024-03-29T21:07:33;99856.16;;;7.56;100.00
84190;BME280;74321;53.406;8.146;2024-03-29T21:12:34;99867.72;;;7.98;100.00
84190;BME280;74321;53.406;8.146;2024-03-29T21:17:35;99863.44;;;8.00;100.00
84190;BME280;74321;53.406;8.146;2024-03-29T21:22:43;99872.81;;;8.03;100.00
84190;BME280;74321;53.406;8.146;2024-03-29T21:27:44;99873.59;;;8.08;100.00
84190;BME280;74321;53.406;8.146;2024-03-29T21:32:45;99869.31;;;8.10;100.00
84190;BME280;74321;53.406;8.146;2024-03-29T21:37:46;99874.38;;;8.16;100.00
84190;BME280;74321;53.406;8.146;2024-03-29T21:42:47;99908.25;;;8.35;100.00
84190;BME280;74321;53.406;8.146;2024-03-29T21:47:49;99899.81;;;8.24;100.00
84190;BME280;74321;53.406;8.146;2024-03-29T21:52:50;99915.13;;;8.24;100.00
84190;BME280;74321;53.406;8.146;2024-03-29T21:57:51;99897.28;;;8.19;100.00
84190;BME280;74321;53.406;8.146;2024-03-29T22:02:55;99890.47;;;8.23;100.00
84190;BME280;74321;53.406;8.146;2024-03-29T22:07:55;99911.69;;;8.29;100.00
84190;BME280;74321;53.406;8.146;2024-03-29T22:12:56;99912.53;;;8.27;100.00
84190;BME280;74321;53.406;8.146;2024-03-29T22:17:57;99907.38;;;8.33;100.00
84190;BME280;74321;53.406;8.146;2024-03-29T22:22:58;99906.47;;;8.43;100.00
84190;BME280;74321;53.406;8.146;2024-03-29T22:27:59;99897.97;;;8.41;100.00
84190;BME280;74321;53.406;8.146;2024-03-29T22:33:00;99890.25;;;8.49;100.00
84190;BME280;74321;53.406;8.146;2024-03-29T22:38:01;99908.13;;;8.49;100.00
84190;BME280;74321;53.406;8.146;2024-03-29T22:43:02;99912.31;;;8.56;100.00
84190;BME280;74321;53.406;8.146;2024-03-29T22:48:03;99918.34;;;8.49;100.00
84190;BME280;74321;53.406;8.146;2024-03-29T22:53:04;99920.84;;;8.52;100.00
84190;BME280;74321;53.406;8.146;2024-03-29T22:58:07;99932.56;;;8.72;100.00
84190;BME280;74321;53.406;8.146;2024-03-29T23:03:08;99922.31;;;8.77;100.00
84190;BME280;74321;53.406;8.146;2024-03-29T23:08:09;99950.09;;;9.05;100.00
84190;BME280;74321;53.406;8.146;2024-03-29T23:13:10;99949.38;;;8.95;100.00
84190;BME280;74321;53.406;8.146;2024-03-29T23:18:11;99971.34;;;9.08;100.00
84190;BME280;74321;53.406;8.146;2024-03-29T23:23:12;99974.78;;;9.06;100.00
84190;BME280;74321;53.406;8.146;2024-03-29T23:28:13;99957.88;;;8.92;100.00
84190;BME280;74321;53.406;8.146;2024-03-29T23:33:16;99968.13;;;8.94;100.00
84190;BME280;74321;53.406;8.146;2024-03-29T23:38:17;99954.47;;;8.93;100.00
84190;BME280;74321;53.406;8.146;2024-03-29T23:43:18;99972.22;;;9.06;100.00
84190;BME280;74321;53.406;8.146;2024-03-29T23:48:19;99966.16;;;9.16;100.00
84190;BME280;74321;53.406;8.146;2024-03-29T23:53:20;99963.75;;;9.00;100.00
84190;BME280;74321;53.406;8.146;2024-03-29T23:58:26;99963.81;;;8.96;100.00
